Time;durP1;ratioP1;P1;durP2;ratioP2;P2;SDS_P1;SDS_P2;PMS_P1;PMS_P2;Temp;Humidity;BMP_temperature;BMP_pressure;BME280_temperature;BME280_humidity;BME280_pressure;Samples;Min_cycle;Max_cycle;Signal;HPM_P1;HPM_P2
2022/10/20 00:01:22;;;;;;;78.40;20.92;;;12.30;99.90;;;;;;5097439;28;20507;-86
2022/10/20 00:03:48;;;;;;;75.93;16.88;;;12.30;99.90;;;;;;5097326;28;20160;-86
2022/10/20 00:06:26;;;;;;;78.28;21.05;;;12.30;99.90;;;;;;5079394;28;20159;-86
2022/10/20 00:08:53;;;;;;;81.43;19.38;;;12.30;99.90;;;;;;5079067;28;20193;-86
2022/10/20 00:11:21;;;;;;;80.43;17.20;;;12.40;99.90;;;;;;5097857;28;20559;-84
2022/10/20 00:13:49;;;;;;;80.43;23.80;;;12.30;99.90;;;;;;5127880;22;20223;-86
2022/10/20 00:16:15;;;;;;;86.20;33.33;;;12.30;99.90;;;;;;5056851;28;20251;-85
2022/10/20 00:18:41;;;;;;;77.78;17.33;;;12.30;99.90;;;;;;5056989;28;20188;-85
2022/10/20 00:21:13;;;;;;;84.03;28.80;;;12.30;99.90;;;;;;5056475;28;20161;-85
2022/10/20 00:23:38;;;;;;;86.22;31.58;;;12.30;99.90;;;;;;5055347;28;20163;-85
2022/10/20 00:26:07;;;;;;;80.47;17.60;;;12.30;99.90;;;;;;5055318;28;20165;-85
2022/10/20 00:28:33;;;;;;;77.25;16.58;;;12.30;99.90;;;;;;5056772;28;20196;-85
2022/10/20 00:30:59;;;;;;;78.75;19.27;;;12.40;99.90;;;;;;5056544;28;20171;-85
2022/10/20 00:33:25;;;;;;;78.23;17.03;;;12.30;99.90;;;;;;5056428;28;20233;-85
2022/10/20 00:35:51;;;;;;;77.10;17.35;;;12.40;99.90;;;;;;5056220;28;20196;-85
2022/10/20 00:38:17;;;;;;;80.65;20.20;;;12.40;99.90;;;;;;5058984;28;20176;-86
2022/10/20 00:40:43;;;;;;;76.03;17.07;;;12.30;99.90;;;;;;5062388;28;20707;-86
2022/10/20 00:43:13;;;;;;;75.23;18.10;;;12.40;99.90;;;;;;5060991;28;20418;-86
2022/10/20 00:45:41;;;;;;;76.20;18.00;;;12.40;99.90;;;;;;5062576;28;20574;-86
2022/10/20 00:48:16;;;;;;;75.82;19.23;;;12.40;99.90;;;;;;5059692;28;20173;-86
2022/10/20 00:50:48;;;;;;;75.47;18.75;;;12.30;99.90;;;;;;5061282;28;20183;-86
2022/10/20 00:53:18;;;;;;;83.53;30.17;;;12.30;99.90;;;;;;5061050;28;20204;-86
2022/10/20 00:55:49;;;;;;;74.85;15.10;;;12.30;99.90;;;;;;5059439;28;20199;-86
2022/10/20 00:58:15;;;;;;;76.85;18.90;;;12.30;99.90;;;;;;5061090;28;20226;-86
2022/10/20 01:00:43;;;;;;;77.43;15.50;;;12.30;99.90;;;;;;5058068;28;20169;-85
2022/10/20 01:03:18;;;;;;;76.70;17.55;;;12.20;99.90;;;;;;5056187;28;20160;-85
2022/10/20 01:05:44;;;;;;;76.78;18.05;;;12.20;99.90;;;;;;5056111;28;20176;-85
2022/10/20 01:08:10;;;;;;;74.77;16.20;;;12.20;99.90;;;;;;5055684;28;20195;-85
2022/10/20 01:10:55;;;;;;;76.37;17.40;;;12.20;99.90;;;;;;5057557;28;20419;-86
2022/10/20 01:13:29;;;;;;;78.35;18.90;;;12.20;99.90;;;;;;5065874;28;20733;-87
2022/10/20 01:16:02;;;;;;;74.45;13.93;;;12.20;99.90;;;;;;5065166;28;20229;-87
2022/10/20 01:18:41;;;;;;;80.95;15.48;;;12.20;99.90;;;;;;5065477;28;20177;-87
2022/10/20 01:21:22;;;;;;;77.43;16.73;;;12.20;99.90;;;;;;5061932;28;20509;-86
2022/10/20 01:24:02;;;;;;;75.10;15.05;;;12.10;99.90;;;;;;5055996;28;20145;-86
2022/10/20 01:26:40;;;;;;;75.82;16.30;;;12.10;99.90;;;;;;5054379;28;20179;-85
2022/10/20 01:29:51;;;;;;;73.15;15.98;;;12.10;99.90;;;;;;5054093;28;20559;-85
2022/10/20 01:32:22;;;;;;;77.40;16.23;;;12.10;99.90;;;;;;5055247;28;20156;-85
2022/10/20 01:35:06;;;;;;;77.97;16.08;;;12.10;99.90;;;;;;5054798;28;20188;-85
2022/10/20 01:37:57;;;;;;;78.28;18.92;;;12.10;99.90;;;;;;5054950;28;20180;-85
2022/10/20 01:40:29;;;;;;;78.60;15.43;;;12.20;99.90;;;;;;5053211;28;20688;-86
2022/10/20 01:42:59;;;;;;;74.82;17.40;;;12.20;99.90;;;;;;5053443;28;20161;-86
2022/10/20 01:45:29;;;;;;;74.57;17.95;;;12.20;99.90;;;;;;5054700;28;20153;-85
2022/10/20 01:47:58;;;;;;;73.90;16.83;;;12.20;99.90;;;;;;5053487;28;20176;-86
2022/10/20 01:50:24;;;;;;;76.03;17.73;;;12.20;99.90;;;;;;5053524;28;20187;-85
2022/10/20 01:52:57;;;;;;;83.85;17.77;;;12.10;99.90;;;;;;5054715;28;20192;-85
2022/10/20 01:55:23;;;;;;;78.28;18.80;;;12.10;99.90;;;;;;5054692;28;20184;-86
2022/10/20 01:58:08;;;;;;;75.10;15.80;;;12.10;99.90;;;;;;5054590;28;20164;-85
2022/10/20 02:00:37;;;;;;;74.38;16.77;;;12.00;99.90;;;;;;5053229;28;20407;-85
2022/10/20 02:03:18;;;;;;;77.82;18.23;;;12.00;99.90;;;;;;5053239;28;20160;-85
2022/10/20 02:06:05;;;;;;;77.07;15.38;;;12.00;99.90;;;;;;5055002;28;20168;-85
2022/10/20 02:08:40;;;;;;;77.53;15.45;;;12.00;99.90;;;;;;5053176;28;20326;-85
2022/10/20 02:11:08;;;;;;;76.25;19.80;;;11.90;99.90;;;;;;5053263;28;20171;-85
2022/10/20 02:13:37;;;;;;;78.97;18.55;;;11.90;99.90;;;;;;5053225;28;20192;-86
2022/10/20 02:16:12;;;;;;;72.32;16.05;;;12.00;99.90;;;;;;5054751;28;20182;-85
2022/10/20 02:18:41;;;;;;;79.88;21.55;;;12.00;99.90;;;;;;5054405;28;20186;-85
2022/10/20 02:21:07;;;;;;;78.18;18.65;;;11.90;99.90;;;;;;5052963;28;20164;-85
2022/10/20 02:23:36;;;;;;;77.05;20.48;;;11.90;99.90;;;;;;5052946;28;20161;-85
2022/10/20 02:26:05;;;;;;;76.32;18.65;;;11.90;99.90;;;;;;5054121;28;20536;-85
2022/10/20 02:28:34;;;;;;;79.15;17.60;;;11.90;99.90;;;;;;5054931;28;20239;-85
2022/10/20 02:31:01;;;;;;;76.63;18.08;;;11.90;99.90;;;;;;5061231;28;20168;-86
2022/10/20 02:33:28;;;;;;;75.97;19.20;;;11.90;99.90;;;;;;5059015;28;20548;-86
2022/10/20 02:35:58;;;;;;;74.53;15.70;;;11.90;99.90;;;;;;5057126;28;20191;-86
2022/10/20 02:38:24;;;;;;;77.25;20.35;;;11.80;99.90;;;;;;5059404;28;20263;-86
2022/10/20 02:40:50;;;;;;;80.07;17.48;;;11.80;99.90;;;;;;5059240;28;20183;-86
2022/10/20 02:43:16;;;;;;;75.90;15.27;;;11.80;99.90;;;;;;5060122;28;20165;-86
2022/10/20 02:45:41;;;;;;;80.70;18.37;;;11.80;99.90;;;;;;5059811;28;20169;-86
2022/10/20 02:48:10;;;;;;;77.00;21.17;;;11.80;99.90;;;;;;5057772;28;20210;-85
2022/10/20 02:50:36;;;;;;;75.05;19.10;;;11.80;99.90;;;;;;5063373;28;20224;-87
2022/10/20 02:53:03;;;;;;;75.43;19.58;;;11.70;99.90;;;;;;5062522;28;20180;-87
2022/10/20 02:55:29;;;;;;;79.85;21.05;;;11.70;99.90;;;;;;5062196;28;20313;-87
2022/10/20 02:57:56;;;;;;;75.53;20.53;;;11.70;99.90;;;;;;5061657;28;20186;-87
2022/10/20 03:00:22;;;;;;;76.68;18.73;;;11.70;99.90;;;;;;5054659;28;20161;-85
2022/10/20 03:02:48;;;;;;;78.00;22.70;;;11.70;99.90;;;;;;5055109;28;20165;-85
2022/10/20 03:05:14;;;;;;;78.10;19.10;;;11.70;99.90;;;;;;5053964;28;20168;-85
2022/10/20 03:07:39;;;;;;;78.67;21.63;;;11.70;99.90;;;;;;5052958;28;20548;-85
2022/10/20 03:10:05;;;;;;;73.77;18.00;;;11.70;99.90;;;;;;5052357;28;20434;-85
2022/10/20 03:12:31;;;;;;;75.13;18.55;;;11.70;99.90;;;;;;5052609;28;20184;-85
2022/10/20 03:14:57;;;;;;;78.00;17.83;;;11.70;99.90;;;;;;5052434;28;20184;-85
2022/10/20 03:17:23;;;;;;;85.70;21.80;;;11.60;99.90;;;;;;5052427;28;20536;-85
2022/10/20 03:19:49;;;;;;;78.53;19.33;;;11.60;99.90;;;;;;5052476;28;20192;-85
2022/10/20 03:22:14;;;;;;;72.00;14.27;;;11.70;99.90;;;;;;5053668;28;20157;-85
2022/10/20 03:24:40;;;;;;;75.57;19.47;;;11.60;99.90;;;;;;5053983;28;20243;-85
2022/10/20 03:27:06;;;;;;;75.67;19.17;;;11.70;99.90;;;;;;5053818;28;20164;-85
2022/10/20 03:29:32;;;;;;;76.37;24.80;;;11.70;99.90;;;;;;5052445;28;20419;-85
2022/10/20 03:31:57;;;;;;;75.35;19.50;;;11.70;99.90;;;;;;5053701;28;20238;-85
2022/10/20 03:34:23;;;;;;;75.50;23.90;;;11.60;99.90;;;;;;5052359;28;20184;-85
2022/10/20 03:36:49;;;;;;;78.70;30.00;;;11.60;99.90;;;;;;5053916;28;20180;-85
2022/10/20 03:39:15;;;;;;;86.23;23.17;;;11.60;99.90;;;;;;5052423;28;20469;-85
2022/10/20 03:41:40;;;;;;;74.80;20.03;;;11.60;99.90;;;;;;5053471;28;20636;-85
2022/10/20 03:44:06;;;;;;;77.80;17.53;;;11.60;99.90;;;;;;5052156;28;20179;-85
2022/10/20 03:46:32;;;;;;;75.17;20.10;;;11.60;99.90;;;;;;5052327;28;20559;-85
2022/10/20 03:48:58;;;;;;;74.53;18.63;;;11.60;99.90;;;;;;5053543;28;20430;-85
2022/10/20 03:51:23;;;;;;;80.73;26.17;;;11.50;99.90;;;;;;5052382;28;20175;-85
2022/10/20 03:53:49;;;;;;;80.60;22.53;;;11.50;99.90;;;;;;5051937;28;20169;-85
2022/10/20 03:56:17;;;;;;;74.80;16.50;;;11.60;99.90;;;;;;5054813;28;20624;-85
2022/10/20 03:58:43;;;;;;;76.45;19.58;;;11.50;99.90;;;;;;5055360;28;20195;-85
2022/10/20 04:01:14;;;;;;;79.07;18.75;;;11.50;99.90;;;;;;5039329;28;20541;-85
2022/10/20 04:03:39;;;;;;;81.15;22.38;;;11.50;99.90;;;;;;5057196;28;20579;-85
2022/10/20 04:06:05;;;;;;;74.90;16.20;;;11.50;99.90;;;;;;5056641;28;20193;-85
2022/10/20 04:08:31;;;;;;;92.83;51.73;;;11.50;99.90;;;;;;5055530;28;20199;-86
2022/10/20 04:10:57;;;;;;;74.77;19.80;;;11.60;99.90;;;;;;5055663;28;20172;-84
2022/10/20 04:13:23;;;;;;;76.85;20.92;;;11.50;99.90;;;;;;5056952;28;20191;-85
2022/10/20 04:15:49;;;;;;;75.73;17.10;;;11.50;99.90;;;;;;5057597;28;20184;-85
2022/10/20 04:18:15;;;;;;;75.73;17.50;;;11.50;99.90;;;;;;5056977;28;20187;-86
2022/10/20 04:20:40;;;;;;;77.40;16.30;;;11.40;99.90;;;;;;5063949;28;20403;-85
2022/10/20 04:23:06;;;;;;;73.70;16.30;;;11.40;99.90;;;;;;5062756;28;20171;-86
2022/10/20 04:25:32;;;;;;;76.57;16.97;;;11.40;99.90;;;;;;5062242;28;20203;-86
2022/10/20 04:28:00;;;;;;;84.07;28.30;;;11.40;99.90;;;;;;5062501;28;20648;-87
2022/10/20 04:30:26;;;;;;;79.60;15.18;;;11.40;99.90;;;;;;5069722;28;20165;-86
2022/10/20 04:32:51;;;;;;;72.30;13.50;;;11.40;99.90;;;;;;5066214;28;20160;-86
2022/10/20 04:35:17;;;;;;;75.37;18.13;;;11.40;99.90;;;;;;5065107;28;20517;-86
2022/10/20 04:37:43;;;;;;;77.17;16.73;;;11.40;99.90;;;;;;5057214;28;20633;-85
2022/10/20 04:40:12;;;;;;;76.40;18.33;;;11.40;99.90;;;;;;5055798;28;20193;-85
2022/10/20 04:42:37;;;;;;;74.60;19.20;;;11.50;99.90;;;;;;5055690;28;20196;-85
2022/10/20 04:45:03;;;;;;;74.47;14.73;;;11.50;99.90;;;;;;5056157;28;20709;-86
2022/10/20 04:47:33;;;;;;;75.40;22.23;;;11.50;99.90;;;;;;5056095;28;20169;-86
2022/10/20 04:49:58;;;;;;;74.75;17.45;;;11.50;99.90;;;;;;5054877;28;20467;-85
2022/10/20 04:52:24;;;;;;;75.97;21.83;;;11.50;99.90;;;;;;5056576;28;20696;-85
2022/10/20 04:54:50;;;;;;;73.70;18.77;;;11.50;99.90;;;;;;5055903;28;20211;-86
2022/10/20 04:57:15;;;;;;;77.97;22.47;;;11.50;99.90;;;;;;5055122;28;20175;-85
2022/10/20 04:59:41;;;;;;;74.20;18.23;;;11.50;99.90;;;;;;5055922;28;20579;-85
2022/10/20 05:02:07;;;;;;;77.57;23.53;;;11.50;99.90;;;;;;5056218;28;20546;-85
2022/10/20 05:04:32;;;;;;;75.10;22.90;;;11.50;99.90;;;;;;5054402;28;20222;-85
2022/10/20 05:06:58;;;;;;;75.70;23.60;;;11.50;99.90;;;;;;5055974;28;20169;-85
2022/10/20 05:09:24;;;;;;;75.43;18.00;;;11.40;99.90;;;;;;5053708;28;20188;-85
2022/10/20 05:11:49;;;;;;;74.70;20.00;;;11.40;99.90;;;;;;5054345;28;20518;-85
2022/10/20 05:14:15;;;;;;;74.00;19.23;;;11.40;99.90;;;;;;5054158;28;20206;-86
2022/10/20 05:16:41;;;;;;;94.77;44.40;;;11.40;99.90;;;;;;5122780;22;20297;-85
2022/10/20 05:19:06;;;;;;;75.57;23.83;;;11.40;99.90;;;;;;5058110;28;20189;-85
2022/10/20 05:21:32;;;;;;;77.40;28.63;;;11.40;99.90;;;;;;5057817;28;20158;-85
2022/10/20 05:24:01;;;;;;;75.27;20.97;;;11.40;99.90;;;;;;5057981;28;20164;-85
2022/10/20 05:26:31;;;;;;;81.97;30.70;;;11.40;99.90;;;;;;5055753;28;20778;-85
2022/10/20 05:28:57;;;;;;;75.80;21.75;;;11.40;99.90;;;;;;5055664;28;20176;-85
2022/10/20 05:31:23;;;;;;;74.90;21.37;;;11.40;99.90;;;;;;5055595;28;20497;-85
2022/10/20 05:33:51;;;;;;;81.13;35.20;;;11.40;99.90;;;;;;5057261;28;20176;-85
2022/10/20 05:36:18;;;;;;;76.00;19.45;;;11.40;99.90;;;;;;5056956;28;20165;-85
2022/10/20 05:38:44;;;;;;;76.30;20.02;;;11.40;99.90;;;;;;5058231;28;20180;-85
2022/10/20 05:41:16;;;;;;;80.10;27.60;;;11.40;99.90;;;;;;5059010;28;20643;-85
2022/10/20 05:43:50;;;;;;;77.93;23.83;;;11.40;99.90;;;;;;5059256;28;20395;-85
2022/10/20 05:46:17;;;;;;;79.85;22.10;;;11.40;99.90;;;;;;5056871;28;20176;-85
2022/10/20 05:48:43;;;;;;;74.25;19.92;;;11.40;99.90;;;;;;5057745;28;20184;-85
2022/10/20 05:51:12;;;;;;;76.50;26.52;;;11.40;99.90;;;;;;5055730;28;20632;-85
2022/10/20 05:53:38;;;;;;;76.43;27.38;;;11.40;99.90;;;;;;5057009;28;20218;-85
2022/10/20 05:56:09;;;;;;;82.90;32.50;;;11.30;99.90;;;;;;5057325;28;20177;-85
2022/10/20 05:58:35;;;;;;;79.15;31.25;;;11.40;99.90;;;;;;5058463;28;20176;-85
2022/10/20 06:01:16;;;;;;;77.57;19.87;;;11.40;99.90;;;;;;5057740;28;20222;-85
2022/10/20 06:03:47;;;;;;;78.78;25.92;;;11.40;99.90;;;;;;5056569;28;20415;-85
2022/10/20 06:06:12;;;;;;;76.60;25.00;;;11.40;99.90;;;;;;5056233;28;20180;-85
2022/10/20 06:08:38;;;;;;;76.87;18.03;;;11.40;99.90;;;;;;5055710;28;20663;-85
2022/10/20 06:11:06;;;;;;;75.90;24.13;;;11.40;99.90;;;;;;5057351;28;20740;-85
2022/10/20 06:13:32;;;;;;;75.72;24.35;;;11.40;99.90;;;;;;5057665;28;20165;-85
2022/10/20 06:16:07;;;;;;;79.70;25.02;;;11.40;99.90;;;;;;5056980;28;20197;-85
2022/10/20 06:18:33;;;;;;;81.05;26.27;;;11.40;99.90;;;;;;5057881;28;20183;-85
2022/10/20 06:21:04;;;;;;;84.10;26.55;;;11.50;99.90;;;;;;5057858;28;20180;-85
2022/10/20 06:23:33;;;;;;;80.13;24.77;;;11.40;99.90;;;;;;5055973;28;20153;-85
2022/10/20 06:26:05;;;;;;;80.85;24.52;;;11.40;99.90;;;;;;5055424;28;20183;-85
2022/10/20 06:28:32;;;;;;;82.10;26.80;;;11.50;99.90;;;;;;5055378;28;20180;-85
2022/10/20 06:30:58;;;;;;;78.65;25.38;;;11.50;99.90;;;;;;5055154;28;20679;-85
2022/10/20 06:33:24;;;;;;;91.72;47.97;;;11.50;99.90;;;;;;5056995;28;20200;-85
2022/10/20 06:35:50;;;;;;;78.38;26.08;;;11.50;99.90;;;;;;5056814;28;20194;-85
2022/10/20 06:38:16;;;;;;;80.47;29.57;;;11.60;99.90;;;;;;5059882;28;20203;-85
2022/10/20 06:40:41;;;;;;;79.40;29.60;;;11.60;99.90;;;;;;5059177;28;20307;-85
2022/10/20 06:43:07;;;;;;;88.70;24.50;;;11.60;99.90;;;;;;5058971;28;20160;-85
2022/10/20 06:45:32;;;;;;;75.00;21.07;;;11.60;99.90;;;;;;5057384;28;20195;-85
2022/10/20 06:47:58;;;;;;;76.80;23.77;;;11.60;99.90;;;;;;5057540;28;20227;-85
2022/10/20 06:50:24;;;;;;;78.10;26.83;;;11.60;99.90;;;;;;5058652;28;20160;-85
2022/10/20 06:52:49;;;;;;;77.83;28.00;;;11.70;99.90;;;;;;5057972;28;20247;-85
2022/10/20 06:55:15;;;;;;;77.90;25.13;;;11.70;99.90;;;;;;5058948;28;20188;-85
2022/10/20 06:57:41;;;;;;;79.50;28.13;;;11.70;99.90;;;;;;5055798;28;20165;-85
2022/10/20 07:00:07;;;;;;;76.97;22.07;;;11.70;99.90;;;;;;5056917;28;20184;-85
2022/10/20 07:02:33;;;;;;;81.88;27.10;;;11.70;99.90;;;;;;5058803;28;20404;-85
2022/10/20 07:05:02;;;;;;;77.23;22.77;;;11.80;99.90;;;;;;5059334;28;20171;-85
2022/10/20 07:07:27;;;;;;;86.30;34.65;;;11.90;99.90;;;;;;5060039;28;20509;-85
2022/10/20 07:09:53;;;;;;;80.30;27.70;;;11.90;99.90;;;;;;5059895;28;20199;-85
2022/10/20 07:12:18;;;;;;;77.77;24.40;;;11.90;99.90;;;;;;5059234;28;20172;-85
2022/10/20 07:14:44;;;;;;;81.37;32.03;;;11.90;99.90;;;;;;5060403;28;20196;-85
2022/10/20 07:17:10;;;;;;;79.33;28.27;;;12.00;99.90;;;;;;5061233;28;20182;-85
2022/10/20 07:19:35;;;;;;;77.67;28.23;;;12.00;99.90;;;;;;5058598;28;20188;-85
2022/10/20 07:22:01;;;;;;;76.27;26.03;;;12.00;99.90;;;;;;5060577;28;20686;-85
2022/10/20 07:24:30;;;;;;;90.68;27.23;;;12.00;99.90;;;;;;5059662;28;20169;-85
2022/10/20 07:26:56;;;;;;;77.57;29.00;;;12.00;99.90;;;;;;5060096;28;20192;-85
2022/10/20 07:29:21;;;;;;;81.50;27.90;;;12.10;99.90;;;;;;5060072;28;20548;-85
2022/10/20 07:31:47;;;;;;;77.47;26.37;;;12.10;99.90;;;;;;5061700;28;20165;-85
2022/10/20 07:34:16;;;;;;;81.25;32.17;;;12.20;99.90;;;;;;5061475;28;20200;-85
2022/10/20 07:36:44;;;;;;;84.32;31.33;;;12.20;99.90;;;;;;5063454;28;20157;-85
2022/10/20 07:39:11;;;;;;;86.65;31.25;;;12.30;99.90;;;;;;5062818;28;20210;-85
2022/10/20 07:41:38;;;;;;;82.80;36.83;;;12.30;99.90;;;;;;5063149;28;20505;-85
2022/10/20 07:44:05;;;;;;;82.18;34.10;;;12.30;99.90;;;;;;5063293;28;20161;-85
2022/10/20 07:46:31;;;;;;;83.68;35.72;;;12.40;99.90;;;;;;5062529;28;20169;-85
2022/10/20 07:48:56;;;;;;;85.73;33.37;;;12.50;99.90;;;;;;5062251;28;20512;-85
2022/10/20 07:51:33;;;;;;;81.10;33.27;;;12.50;99.90;;;;;;5062795;28;20153;-85
2022/10/20 07:54:07;;;;;;;83.32;37.78;;;12.50;99.90;;;;;;5063241;28;20198;-85
2022/10/20 07:56:39;;;;;;;85.05;37.03;;;12.50;99.90;;;;;;5062419;28;20167;-85
2022/10/20 07:59:06;;;;;;;81.68;33.67;;;12.50;99.90;;;;;;5062548;28;20183;-85
2022/10/20 08:01:32;;;;;;;85.75;38.92;;;12.50;99.90;;;;;;5063209;28;20165;-85
2022/10/20 08:03:57;;;;;;;80.03;35.53;;;12.50;99.90;;;;;;5064140;28;20187;-85
2022/10/20 08:06:23;;;;;;;80.10;33.50;;;12.50;99.90;;;;;;5062342;28;20414;-85
2022/10/20 08:08:49;;;;;;;81.72;32.75;;;12.50;99.90;;;;;;5062631;28;20233;-85
2022/10/20 08:11:15;;;;;;;84.47;38.07;;;12.50;99.90;;;;;;5063090;28;20239;-85
2022/10/20 08:13:41;;;;;;;81.53;33.90;;;12.50;99.90;;;;;;5063908;28;20188;-85
2022/10/20 08:16:09;;;;;;;80.43;34.47;;;12.50;99.90;;;;;;5063308;28;20287;-85
2022/10/20 08:18:35;;;;;;;83.18;37.05;;;12.50;99.90;;;;;;5063472;28;20194;-85
2022/10/20 08:21:14;;;;;;;79.40;26.65;;;12.50;99.90;;;;;;5064280;28;20224;-85
2022/10/20 08:23:42;;;;;;;83.57;29.50;;;12.60;99.90;;;;;;5063398;28;20145;-85
2022/10/20 08:26:08;;;;;;;82.00;29.50;;;12.60;99.90;;;;;;5044193;28;20176;-85
2022/10/20 08:28:35;;;;;;;79.78;28.00;;;12.70;99.90;;;;;;5060635;28;20220;-85
2022/10/20 08:31:05;;;;;;;94.18;30.88;;;12.70;99.90;;;;;;5058045;28;20173;-86
2022/10/20 08:33:31;;;;;;;83.30;26.80;;;12.80;99.90;;;;;;5063196;28;20168;-85
2022/10/20 08:36:06;;;;;;;84.18;30.17;;;12.80;99.90;;;;;;5062805;28;20231;-85
2022/10/20 08:38:32;;;;;;;81.25;25.40;;;12.80;99.90;;;;;;5062284;28;20185;-85
2022/10/20 08:40:59;;;;;;;77.75;23.48;;;12.90;99.90;;;;;;5062174;28;20181;-84
2022/10/20 08:43:26;;;;;;;80.93;25.35;;;12.90;99.90;;;;;;5061119;28;20153;-85
2022/10/20 08:45:52;;;;;;;80.55;25.83;;;12.90;99.90;;;;;;5061508;28;20238;-84
2022/10/20 08:48:22;;;;;;;79.27;26.23;;;12.80;99.90;;;;;;5063037;28;20181;-84
2022/10/20 08:50:50;;;;;;;79.45;27.27;;;12.80;99.90;;;;;;5062631;28;20153;-84
2022/10/20 08:53:21;;;;;;;79.95;24.58;;;12.80;99.90;;;;;;5058384;28;20532;-85
2022/10/20 08:55:47;;;;;;;77.57;26.33;;;12.80;99.90;;;;;;5055249;28;20253;-85
2022/10/20 08:58:20;;;;;;;86.88;28.45;;;12.80;99.90;;;;;;5055574;28;20531;-86
2022/10/20 09:00:46;;;;;;;79.40;26.45;;;12.80;99.90;;;;;;5055363;28;20620;-86
2022/10/20 09:03:31;;;;;;;79.85;25.90;;;12.80;99.90;;;;;;5055325;28;20179;-86
2022/10/20 09:06:11;;;;;;;80.38;30.40;;;12.80;99.90;;;;;;5058651;28;20538;-85
2022/10/20 09:08:38;;;;;;;82.10;25.88;;;12.80;99.90;;;;;;5059549;28;20184;-85
2022/10/20 09:11:07;;;;;;;77.18;24.20;;;12.80;99.90;;;;;;5061135;28;20176;-85
2022/10/20 09:13:35;;;;;;;76.95;25.00;;;12.90;99.90;;;;;;5060505;28;20164;-85
2022/10/20 09:16:11;;;;;;;80.82;28.13;;;13.00;99.90;;;;;;5059638;28;20192;-85
2022/10/20 09:18:37;;;;;;;78.43;24.38;;;13.00;99.90;;;;;;5059836;28;20188;-85
2022/10/20 09:21:07;;;;;;;77.90;25.50;;;13.10;99.90;;;;;;5058026;28;20170;-85
2022/10/20 09:23:46;;;;;;;84.75;26.63;;;13.10;99.90;;;;;;5060498;28;20516;-85
2022/10/20 09:26:17;;;;;;;79.18;24.98;;;13.10;99.90;;;;;;5060356;28;20622;-85
2022/10/20 09:28:48;;;;;;;78.57;25.58;;;13.20;99.90;;;;;;5059277;28;20282;-85
2022/10/20 09:31:34;;;;;;;82.05;26.98;;;13.20;99.90;;;;;;5060452;28;20156;-85
2022/10/20 09:34:00;;;;;;;78.97;25.77;;;13.20;99.90;;;;;;5060633;28;20693;-85
2022/10/20 09:36:33;;;;;;;86.13;26.60;;;13.10;99.90;;;;;;5058266;28;20255;-85
2022/10/20 09:39:00;;;;;;;77.47;24.00;;;13.20;99.90;;;;;;5058083;28;20265;-85
2022/10/20 09:41:29;;;;;;;77.97;26.52;;;13.20;99.90;;;;;;5057600;28;20243;-85
2022/10/20 09:43:59;;;;;;;81.88;29.80;;;13.30;99.90;;;;;;5056728;28;20168;-85
2022/10/20 09:46:33;;;;;;;84.40;27.42;;;13.30;99.90;;;;;;5056472;28;20227;-85
2022/10/20 09:48:58;;;;;;;80.78;22.00;;;13.40;99.90;;;;;;5056331;28;20183;-85
2022/10/20 09:51:29;;;;;;;80.20;25.10;;;13.40;99.90;;;;;;5057285;28;20165;-85
2022/10/20 09:54:06;;;;;;;76.47;22.97;;;13.40;99.90;;;;;;5056535;28;20805;-85
2022/10/20 09:56:37;;;;;;;78.07;24.88;;;13.40;99.90;;;;;;5056108;28;20391;-85
2022/10/20 09:59:18;;;;;;;82.82;27.58;;;13.30;99.90;;;;;;5056851;28;20524;-85
2022/10/20 10:02:03;;;;;;;79.60;26.08;;;13.30;99.90;;;;;;5057102;28;20639;-85
2022/10/20 10:04:40;;;;;;;77.55;22.58;;;13.20;99.90;;;;;;5058139;28;20211;-85
2022/10/20 10:07:24;;;;;;;78.97;21.30;;;13.10;99.90;;;;;;5056599;28;20149;-85
2022/10/20 10:10:02;;;;;;;88.05;23.77;;;13.10;99.90;;;;;;5055883;28;20195;-85
2022/10/20 10:12:29;;;;;;;81.67;21.20;;;13.00;99.90;;;;;;5056205;28;20188;-85
2022/10/20 10:14:57;;;;;;;81.53;20.60;;;13.10;99.90;;;;;;5056184;28;20446;-85
2022/10/20 10:17:33;;;;;;;86.45;22.15;;;13.10;99.90;;;;;;5054846;28;20655;-85
2022/10/20 10:20:00;;;;;;;83.28;24.50;;;13.10;99.90;;;;;;5057651;28;20203;-85
2022/10/20 10:22:27;;;;;;;86.30;26.63;;;13.10;99.90;;;;;;5059415;28;20183;-85
2022/10/20 10:24:54;;;;;;;81.82;22.48;;;13.10;99.90;;;;;;5058408;28;20156;-85
2022/10/20 10:27:22;;;;;;;82.07;22.90;;;13.10;99.90;;;;;;5061543;28;20169;-85
2022/10/20 10:29:48;;;;;;;85.07;24.42;;;13.20;99.90;;;;;;5060252;28;20240;-85
2022/10/20 10:32:24;;;;;;;84.23;23.00;;;13.20;99.90;;;;;;5061297;28;20191;-85
2022/10/20 10:35:11;;;;;;;81.10;22.60;;;13.20;99.90;;;;;;5061020;28;20207;-85
2022/10/20 10:37:40;;;;;;;81.50;21.42;;;13.20;99.90;;;;;;5062334;28;20220;-85
2022/10/20 10:40:23;;;;;;;82.75;21.95;;;13.20;99.90;;;;;;5060742;28;20188;-85
2022/10/20 10:43:04;;;;;;;88.10;20.85;;;13.20;99.90;;;;;;5061824;28;20149;-85
2022/10/20 10:45:42;;;;;;;80.40;18.08;;;13.20;99.90;;;;;;5063881;28;20156;-85
2022/10/20 10:48:29;;;;;;;81.10;21.20;;;13.20;99.90;;;;;;5061437;28;20156;-84
2022/10/20 10:51:01;;;;;;;79.32;19.08;;;13.10;99.90;;;;;;5061472;28;20395;-85
2022/10/20 10:53:50;;;;;;;83.95;16.92;;;13.10;99.90;;;;;;5061341;28;20174;-85
2022/10/20 10:56:44;;;;;;;79.88;19.52;;;13.10;99.90;;;;;;5061341;28;20238;-85
2022/10/20 10:59:18;;;;;;;80.90;18.45;;;13.00;99.90;;;;;;5060929;28;20181;-85
2022/10/20 11:01:56;;;;;;;86.47;22.00;;;13.00;99.90;;;;;;5061670;28;20504;-85
2022/10/20 11:04:51;;;;;;;80.43;21.45;;;13.00;99.90;;;;;;5062791;28;20380;-85
2022/10/20 11:08:00;;;;;;;82.72;19.42;;;13.00;99.90;;;;;;5060822;28;20180;-85
2022/10/20 11:10:49;;;;;;;84.33;19.60;;;13.00;99.90;;;;;;5062476;28;20145;-86
2022/10/20 11:13:18;;;;;;;82.32;21.90;;;13.10;99.90;;;;;;5056764;28;20767;-85
2022/10/20 11:18:57;;;;;;;84.85;25.10;;;13.00;99.90;;;;;;5084004;22;20227;-86
2022/10/20 11:21:38;;;;;;;84.20;22.25;;;13.00;99.90;;;;;;5038148;28;20173;-86
2022/10/20 11:24:27;;;;;;;83.77;23.07;;;13.00;99.90;;;;;;5038743;28;20240;-86
2022/10/20 11:27:06;;;;;;;82.05;21.55;;;13.00;99.90;;;;;;5038410;28;20872;-86
2022/10/20 11:29:50;;;;;;;81.85;22.45;;;13.00;99.90;;;;;;5038342;28;20181;-86
2022/10/20 11:32:30;;;;;;;86.45;24.35;;;13.00;99.90;;;;;;5038688;28;20142;-86
2022/10/20 11:34:55;;;;;;;84.05;25.60;;;13.00;99.90;;;;;;5040123;28;20181;-87
2022/10/20 11:37:37;;;;;;;86.07;27.53;;;13.00;99.90;;;;;;5023071;28;20161;-87
2022/10/20 11:40:20;;;;;;;85.28;28.83;;;13.00;99.90;;;;;;5024815;28;20212;-86
2022/10/20 11:43:22;;;;;;;91.38;25.42;;;13.00;99.90;;;;;;5022350;28;20180;-87
2022/10/20 11:46:00;;;;;;;84.05;25.23;;;13.10;99.90;;;;;;5022556;28;20171;-86
2022/10/20 11:48:57;;;;;;;85.20;30.17;;;13.10;99.90;;;;;;5022461;28;20556;-86
2022/10/20 11:51:29;;;;;;;90.60;28.65;;;13.10;99.90;;;;;;5021494;28;20201;-86
2022/10/20 11:54:25;;;;;;;83.82;23.70;;;13.10;99.90;;;;;;5039445;28;20617;-86
2022/10/20 11:57:18;;;;;;;83.50;23.50;;;13.10;99.90;;;;;;5040382;28;20199;-86
2022/10/20 12:00:11;;;;;;;85.75;27.63;;;13.10;99.90;;;;;;5032469;23;20685;-86
2022/10/20 12:03:22;;;;;;;84.23;26.83;;;13.20;99.90;;;;;;5018469;28;20181;-86
2022/10/20 12:06:26;;;;;;;82.18;23.17;;;13.20;99.90;;;;;;5014761;28;20401;-86
2022/10/20 12:09:29;;;;;;;90.80;23.03;;;13.20;99.90;;;;;;5015566;28;20202;-86
2022/10/20 12:12:32;;;;;;;84.63;23.10;;;13.20;99.90;;;;;;5016507;28;20475;-86
2022/10/20 12:15:00;;;;;;;88.15;28.38;;;13.20;99.90;;;;;;5017445;28;20539;-86
2022/10/20 12:17:33;;;;;;;86.70;27.30;;;13.10;99.90;;;;;;5016316;28;20162;-86
2022/10/20 12:20:20;;;;;;;91.05;29.80;;;13.10;99.90;;;;;;5017949;28;20182;-86
2022/10/20 12:22:51;;;;;;;86.18;26.40;;;13.10;99.90;;;;;;5018144;28;20672;-86
2022/10/20 12:25:26;;;;;;;83.47;25.38;;;13.10;99.90;;;;;;5016829;28;20178;-86
2022/10/20 12:28:21;;;;;;;88.57;25.77;;;13.10;99.90;;;;;;5017928;28;20684;-86
2022/10/20 12:31:00;;;;;;;87.55;26.75;;;13.20;99.90;;;;;;5016177;28;20180;-86
2022/10/20 12:33:59;;;;;;;92.77;24.57;;;13.10;99.90;;;;;;5016391;28;20174;-86
2022/10/20 12:36:32;;;;;;;86.40;26.02;;;13.10;99.90;;;;;;5016588;28;20808;-86
2022/10/20 12:39:28;;;;;;;87.27;24.97;;;13.20;99.90;;;;;;5015748;28;20284;-85
2022/10/20 12:42:04;;;;;;;87.82;25.98;;;13.20;99.90;;;;;;4931772;28;20415;-86
2022/10/20 12:44:49;;;;;;;84.47;22.73;;;13.30;99.90;;;;;;5015852;28;20165;-85
2022/10/20 12:47:23;;;;;;;86.13;25.05;;;13.30;99.90;;;;;;5016042;28;20462;-85
2022/10/20 12:50:37;;;;;;;87.27;26.80;;;13.40;99.90;;;;;;5017216;28;20193;-85
2022/10/20 12:53:34;;;;;;;84.10;23.87;;;13.40;99.90;;;;;;5011988;28;20471;-85